Time;durP1;ratioP1;P1;durP2;ratioP2;P2;SDS_P1;SDS_P2;PMS_P1;PMS_P2;Temp;Humidity;BMP_temperature;BMP_pressure;BME280_temperature;BME280_humidity;BME280_pressure;Samples;Min_cycle;Max_cycle;Signal;HPM_P1;HPM_P2
2020/12/10 00:00:42;;;;;;;32.93;14.47;;;;;;;-1.59;75.28;98672.66;125948;1098;104442;-75
2020/12/10 00:03:09;;;;;;;37.03;16.32;;;;;;;-1.61;74.82;98671.85;126365;1099;104500;-76
2020/12/10 00:05:36;;;;;;;35.93;15.73;;;;;;;-1.62;74.51;98671.88;125732;1100;104433;-77
2020/12/10 00:08:03;;;;;;;36.57;16.30;;;;;;;-1.64;74.72;98671.94;126072;1098;104542;-77
2020/12/10 00:10:30;;;;;;;35.67;14.97;;;;;;;-1.68;74.44;98657.28;125738;1098;104478;-76
2020/12/10 00:12:58;;;;;;;35.53;16.27;;;;;;;-1.68;74.86;98662.50;126028;1098;104554;-76
2020/12/10 00:15:25;;;;;;;34.83;16.10;;;;;;;-1.64;75.23;98658.91;126054;1098;104548;-74
2020/12/10 00:17:53;;;;;;;39.80;16.03;;;;;;;-1.64;74.87;98653.69;126050;1098;104429;-74
2020/12/10 00:20:20;;;;;;;38.05;16.77;;;;;;;-1.62;74.52;98651.89;126045;1093;104477;-76
2020/12/10 00:22:47;;;;;;;34.60;13.67;;;;;;;-1.59;74.92;98654.41;125942;1093;104424;-74
2020/12/10 00:25:14;;;;;;;38.53;17.00;;;;;;;-1.63;74.38;98652.79;125747;1100;104403;-75
2020/12/10 00:27:41;;;;;;;37.53;15.60;;;;;;;-1.62;74.90;98646.67;125713;1093;104590;-75
2020/12/10 00:30:10;;;;;;;36.00;16.27;;;;;;;-1.60;75.31;98646.61;126089;1093;104413;-76
2020/12/10 00:32:38;;;;;;;38.33;16.67;;;;;;;-1.61;74.73;98647.52;125974;1098;104410;-75
2020/12/10 00:35:09;;;;;;;37.17;17.97;;;;;;;-1.65;74.78;98646.77;125957;1099;104458;-76
2020/12/10 00:37:37;;;;;;;38.83;17.67;;;;;;;-1.67;74.34;98656.38;125997;1100;104957;-75
2020/12/10 00:40:08;;;;;;;37.30;17.80;;;;;;;-1.68;74.84;98652.06;126017;1098;104439;-76
2020/12/10 00:42:36;;;;;;;39.47;17.10;;;;;;;-1.67;75.56;98652.04;125775;1100;104740;-77
2020/12/10 00:45:04;;;;;;;37.97;16.70;;;;;;;-1.66;75.60;98650.27;126057;1098;104933;-75
2020/12/10 00:47:32;;;;;;;39.37;18.70;;;;;;;-1.61;74.59;98656.20;126507;1100;105022;-75
2020/12/10 00:50:00;;;;;;;39.43;18.03;;;;;;;-1.54;74.71;98659.47;126276;1098;104481;-75
2020/12/10 00:52:27;;;;;;;40.80;18.40;;;;;;;-1.47;75.31;98647.13;126135;1098;104433;-75
2020/12/10 00:54:54;;;;;;;37.93;18.87;;;;;;;-1.49;75.13;98652.37;125761;1099;104970;-76
2020/12/10 00:57:21;;;;;;;42.00;18.37;;;;;;;-1.51;75.47;98643.73;125947;1098;104885;-74
2020/12/10 00:59:48;;;;;;;44.13;18.70;;;;;;;-1.52;74.93;98642.02;125812;1100;104423;-75
2020/12/10 01:02:15;;;;;;;47.30;19.10;;;;;;;-1.54;75.38;98642.09;127023;1098;104411;-76
2020/12/10 01:04:42;;;;;;;43.87;20.50;;;;;;;-1.56;74.51;98638.67;125764;1101;104416;-75
2020/12/10 01:07:11;;;;;;;43.83;18.98;;;;;;;-1.55;75.03;98642.98;125997;1098;104913;-75
2020/12/10 01:09:38;;;;;;;38.10;16.57;;;;;;;-1.52;74.90;98640.28;126030;1093;104493;-72
2020/12/10 01:12:06;;;;;;;41.43;18.30;;;;;;;-1.51;75.55;98639.39;125938;1098;104453;-72
2020/12/10 01:14:33;;;;;;;38.70;17.13;;;;;;;-1.54;74.52;98647.30;126006;1098;104410;-76
2020/12/10 01:17:03;;;;;;;38.43;18.10;;;;;;;-1.55;75.57;98648.20;126672;1098;103252;-75
2020/12/10 01:19:30;;;;;;;38.83;18.20;;;;;;;-1.56;74.42;98640.41;126354;1098;104611;-75
2020/12/10 01:21:58;;;;;;;37.90;17.77;;;;;;;-1.56;74.91;98635.19;127223;1098;102112;-76
2020/12/10 01:24:26;;;;;;;35.90;16.13;;;;;;;-1.59;75.06;98628.33;126401;1098;104478;-76
2020/12/10 01:26:53;;;;;;;44.03;18.67;;;;;;;-1.62;75.52;98628.41;125978;1093;104454;-75
2020/12/10 01:29:21;;;;;;;35.00;15.77;;;;;;;-1.58;75.37;98624.81;125760;1100;104479;-77
2020/12/10 01:31:51;;;;;;;39.93;17.20;;;;;;;-1.57;74.63;98612.61;125937;1098;104432;-76
2020/12/10 01:34:19;;;;;;;40.97;17.60;;;;;;;-1.54;75.71;98615.13;126026;1093;104506;-73
2020/12/10 01:36:46;;;;;;;43.30;18.90;;;;;;;-1.50;75.42;98607.19;125965;1098;104978;-74
2020/12/10 01:39:15;;;;;;;39.10;16.65;;;;;;;-1.47;74.54;98607.98;125883;1099;104420;-73
2020/12/10 01:41:44;;;;;;;37.10;17.23;;;;;;;-1.45;75.64;98598.36;125767;1099;104513;-73
2020/12/10 01:44:13;;;;;;;38.17;17.77;;;;;;;-1.50;74.71;98601.97;125983;1098;104478;-74
2020/12/10 01:46:42;;;;;;;35.93;16.37;;;;;;;-1.46;74.62;98586.22;125783;1100;104602;-73
2020/12/10 01:49:11;;;;;;;38.40;16.37;;;;;;;-1.45;75.42;98588.77;125933;1093;104403;-72
2020/12/10 01:51:41;;;;;;;41.47;18.07;;;;;;;-1.44;75.37;98576.59;126075;1098;104522;-73
2020/12/10 01:54:08;;;;;;;38.40;17.85;;;;;;;-1.43;75.53;98571.31;126078;1098;104548;-75
2020/12/10 01:56:36;;;;;;;45.00;20.03;;;;;;;-1.37;74.78;98563.29;126019;1098;104484;-74
2020/12/10 01:59:05;;;;;;;42.03;17.67;;;;;;;-1.42;74.78;98559.97;125809;1098;104526;-75
2020/12/10 02:01:35;;;;;;;37.57;17.73;;;;;;;-1.45;74.81;98570.50;125769;1098;104474;-74
2020/12/10 02:04:27;;;;;;;41.83;17.80;;;;;;;-1.44;75.25;98571.38;126562;1098;104436;-74
2020/12/10 02:06:55;;;;;;;43.80;18.80;;;;;;;-1.44;74.47;98568.77;126091;1098;104666;-74
2020/12/10 02:09:22;;;;;;;44.00;20.30;;;;;;;-1.45;75.22;98570.50;126416;1098;104526;-73
2020/12/10 02:11:50;;;;;;;39.70;17.10;;;;;;;-1.46;75.21;98558.36;125945;1098;104545;-76
2020/12/10 02:14:18;;;;;;;43.73;19.63;;;;;;;-1.49;74.66;98574.11;125702;1096;104588;-77
2020/12/10 02:16:55;;;;;;;39.25;17.40;;;;;;;-1.51;75.72;98566.34;125979;1093;104475;-74
2020/12/10 02:19:22;;;;;;;39.80;17.60;;;;;;;-1.58;75.59;98562.22;126039;1100;104446;-74
2020/12/10 02:21:49;;;;;;;35.87;15.47;;;;;;;-1.62;75.07;98563.21;125723;1101;104417;-75
2020/12/10 02:24:18;;;;;;;44.60;19.80;;;;;;;-1.63;74.72;98558.06;125973;1093;104903;-75
2020/12/10 02:26:47;;;;;;;43.73;18.13;;;;;;;-1.65;75.84;98552.87;125743;1101;104532;-75
2020/12/10 02:29:18;;;;;;;45.10;18.73;;;;;;;-1.62;75.04;98542.34;125988;1098;104423;-76
2020/12/10 02:31:47;;;;;;;43.40;18.63;;;;;;;-1.66;74.61;98544.21;125819;1100;104561;-76
2020/12/10 02:34:15;;;;;;;40.63;17.57;;;;;;;-1.65;75.51;98542.44;125898;1098;104475;-76
2020/12/10 02:36:44;;;;;;;41.40;18.77;;;;;;;-1.66;75.48;98532.91;125774;1099;104516;-77
2020/12/10 02:39:12;;;;;;;42.97;16.87;;;;;;;-1.67;75.32;98533.81;125958;1098;104599;-75
2020/12/10 02:41:39;;;;;;;47.37;18.70;;;;;;;-1.72;75.49;98533.97;125804;1098;104410;-75
2020/12/10 02:44:06;;;;;;;40.07;17.13;;;;;;;-1.70;74.76;98531.30;126039;1098;104433;-75
2020/12/10 02:46:33;;;;;;;39.77;16.13;;;;;;;-1.74;75.83;98509.69;126206;1099;104481;-75
2020/12/10 02:49:01;;;;;;;42.57;17.93;;;;;;;-1.77;74.61;98509.79;126057;1098;104522;-76
2020/12/10 02:51:28;;;;;;;48.20;20.47;;;;;;;-1.76;75.63;98508.88;126998;1099;102476;-75
2020/12/10 02:53:57;;;;;;;38.85;15.80;;;;;;;-1.73;74.71;98506.19;125969;1098;104436;-76
2020/12/10 02:56:24;;;;;;;40.07;16.87;;;;;;;-1.74;74.90;98506.22;125934;1098;104570;-75
2020/12/10 02:58:50;;;;;;;44.63;19.73;;;;;;;-1.76;75.01;98501.06;125918;1098;104923;-75
2020/12/10 03:01:17;;;;;;;40.07;18.43;;;;;;;-1.71;75.29;98500.91;126730;1100;102753;-75
2020/12/10 03:03:45;;;;;;;44.83;20.47;;;;;;;-1.74;75.12;98495.78;125782;1101;104534;-76
2020/12/10 03:06:13;;;;;;;44.67;18.67;;;;;;;-1.71;75.37;98491.34;126003;1098;104448;-75
2020/12/10 03:08:41;;;;;;;44.87;20.37;;;;;;;-1.69;75.42;98489.54;126248;1098;104436;-77
2020/12/10 03:11:08;;;;;;;42.35;19.48;;;;;;;-1.65;75.85;98477.24;125739;1100;104592;-75
2020/12/10 03:13:35;;;;;;;46.73;18.87;;;;;;;-1.67;75.23;98477.31;125998;1098;104519;-74
2020/12/10 03:16:02;;;;;;;41.13;17.97;;;;;;;-1.62;75.42;98482.36;126718;1098;104614;-74
2020/12/10 03:18:31;;;;;;;37.70;16.37;;;;;;;-1.62;75.30;98465.84;126043;1093;104477;-75
2020/12/10 03:20:58;;;;;;;40.48;18.27;;;;;;;-1.61;75.87;98464.94;127074;1098;104417;-74
2020/12/10 03:23:25;;;;;;;42.80;19.93;;;;;;;-1.61;75.23;98471.03;125730;1101;104478;-74
2020/12/10 03:25:52;;;;;;;39.40;17.30;;;;;;;-1.59;75.59;98471.83;126040;1098;104475;-75
2020/12/10 03:28:19;;;;;;;39.53;17.93;;;;;;;-1.58;75.44;98477.89;125780;1098;104641;-75
2020/12/10 03:30:46;;;;;;;35.60;15.37;;;;;;;-1.54;75.46;98466.45;126064;1098;104433;-75
2020/12/10 03:33:13;;;;;;;44.87;18.83;;;;;;;-1.57;75.97;98475.25;126010;1098;104910;-75
2020/12/10 03:35:40;;;;;;;36.33;16.87;;;;;;;-1.56;75.11;98468.25;125814;1098;104624;-75
2020/12/10 03:38:07;;;;;;;45.03;17.40;;;;;;;-1.58;75.16;98470.93;125755;1100;104622;-75
2020/12/10 03:40:35;;;;;;;38.15;16.35;;;;;;;-1.62;75.26;98463.23;125985;1098;104608;-75
2020/12/10 03:43:02;;;;;;;39.30;17.23;;;;;;;-1.66;75.82;98460.76;126029;1098;104630;-75
2020/12/10 03:45:29;;;;;;;36.88;16.27;;;;;;;-1.68;74.91;98449.52;125982;1098;104480;-75
2020/12/10 03:47:56;;;;;;;38.50;17.37;;;;;;;-1.69;75.95;98450.42;125757;1098;104477;-79
2020/12/10 03:50:23;;;;;;;42.27;18.37;;;;;;;-1.68;76.00;98444.30;126924;1100;104444;-76
2020/12/10 03:52:49;;;;;;;42.27;17.63;;;;;;;-1.69;74.84;98446.95;125976;1099;104531;-76
2020/12/10 03:55:16;;;;;;;43.33;17.67;;;;;;;-1.65;75.10;98446.81;125799;1093;104484;-76
2020/12/10 03:57:46;;;;;;;47.57;19.57;;;;;;;-1.66;75.00;98447.72;125759;1100;104440;-76
2020/12/10 04:00:13;;;;;;;42.67;17.43;;;;;;;-1.63;75.97;98446.75;126241;1098;104522;-74
2020/12/10 04:02:40;;;;;;;38.77;16.03;;;;;;;-1.62;75.74;98431.94;126833;1100;104667;-76
2020/12/10 04:05:07;;;;;;;35.85;14.60;;;;;;;-1.62;75.69;98430.20;126613;1100;104926;-74
2020/12/10 04:07:34;;;;;;;38.70;17.33;;;;;;;-1.62;74.99;98421.51;125915;1098;104417;-74
2020/12/10 04:10:01;;;;;;;47.13;19.52;;;;;;;-1.58;75.59;98417.89;125902;1093;104498;-75
2020/12/10 04:12:29;;;;;;;48.07;19.17;;;;;;;-1.54;75.49;98412.55;128059;1099;102146;-75
2020/12/10 04:14:56;;;;;;;47.80;19.45;;;;;;;-1.48;75.73;98414.08;128144;1099;102898;-75
2020/12/10 04:17:23;;;;;;;45.03;18.93;;;;;;;-1.41;75.03;98410.36;125949;1098;104432;-75
2020/12/10 04:19:52;;;;;;;43.10;19.43;;;;;;;-1.35;75.50;98409.28;126095;1098;104413;-75
2020/12/10 04:22:18;;;;;;;47.50;19.62;;;;;;;-1.28;75.08;98391.67;125995;1098;104525;-75
2020/12/10 04:24:45;;;;;;;42.07;17.83;;;;;;;-1.31;75.77;98395.23;125797;1101;104445;-75
2020/12/10 04:27:12;;;;;;;43.07;17.47;;;;;;;-1.32;75.60;98405.73;125888;1092;104602;-76
2020/12/10 04:29:39;;;;;;;44.97;19.63;;;;;;;-1.33;75.46;98402.26;126114;1098;104549;-77
2020/12/10 04:32:06;;;;;;;46.70;18.87;;;;;;;-1.35;76.14;98407.55;125880;1093;104545;-75
2020/12/10 04:34:33;;;;;;;41.97;16.90;;;;;;;-1.37;75.33;98403.27;125857;1100;104527;-75
2020/12/10 04:37:00;;;;;;;42.73;18.12;;;;;;;-1.38;75.60;98412.87;125862;1100;104501;-75
2020/12/10 04:39:45;;;;;;;41.83;18.37;;;;;;;-1.38;75.11;98406.78;126431;1093;104501;-76
2020/12/10 04:42:12;;;;;;;48.30;18.20;;;;;;;-1.37;74.95;98411.09;125856;1101;104481;-76
2020/12/10 04:44:39;;;;;;;46.30;18.80;;;;;;;-1.39;75.72;98412.91;126228;1098;104446;-77
2020/12/10 04:47:10;;;;;;;47.37;20.60;;;;;;;-1.38;75.27;98397.21;126049;1098;104602;-77
2020/12/10 04:49:39;;;;;;;40.17;17.83;;;;;;;-1.40;75.38;98406.84;126045;1098;104599;-77
2020/12/10 04:52:09;;;;;;;39.60;17.87;;;;;;;-1.42;75.28;98406.05;125842;1098;104547;-76
2020/12/10 04:54:36;;;;;;;40.90;18.37;;;;;;;-1.41;74.92;98404.28;126088;1093;104771;-76
2020/12/10 04:57:10;;;;;;;39.95;17.00;;;;;;;-1.38;75.59;98406.78;125795;1101;104426;-76
2020/12/10 04:59:39;;;;;;;39.07;16.83;;;;;;;-1.35;75.20;98409.28;126061;1098;104424;-77
2020/12/10 05:02:11;;;;;;;41.17;16.97;;;;;;;-1.35;76.20;98404.94;125839;1098;104567;-76
2020/12/10 05:04:41;;;;;;;39.83;17.00;;;;;;;-1.32;75.16;98409.19;126359;1100;104522;-76
2020/12/10 05:07:08;;;;;;;40.13;16.60;;;;;;;-1.32;74.98;98413.56;125838;1094;105017;-75
2020/12/10 05:09:36;;;;;;;39.47;17.83;;;;;;;-1.30;75.09;98403.92;126947;1098;104489;-76
2020/12/10 05:12:18;;;;;;;41.37;17.40;;;;;;;-1.25;75.04;98407.23;126059;1098;104602;-80
2020/12/10 05:14:46;;;;;;;41.27;17.67;;;;;;;-1.22;76.11;98396.66;125862;1100;104695;-81
2020/12/10 05:17:16;;;;;;;36.30;16.03;;;;;;;-1.23;76.03;98397.59;126067;1100;104525;-82
2020/12/10 05:19:43;;;;;;;39.50;16.10;;;;;;;-1.20;75.73;98400.06;125951;1093;104484;-78
2020/12/10 05:22:10;;;;;;;37.07;18.83;;;;;;;-1.20;75.94;98393.10;125985;1100;104436;-80
2020/12/10 05:24:39;;;;;;;36.83;16.10;;;;;;;-1.18;75.49;98390.42;126738;1100;104410;-80
2020/12/10 05:27:14;;;;;;;37.05;17.20;;;;;;;-1.20;75.20;98387.88;126034;1093;104692;-80
2020/12/10 05:29:41;;;;;;;37.17;17.57;;;;;;;-1.19;75.35;98393.94;126652;1098;104563;-81
2020/12/10 05:32:32;;;;;;;35.03;16.23;;;;;;;-1.16;75.35;98387.77;126472;1098;104615;-80
2020/12/10 05:35:18;;;;;;;39.37;15.77;;;;;;;-1.15;75.26;98381.65;125810;1100;104552;-79
2020/12/10 05:37:45;;;;;;;40.60;17.43;;;;;;;-1.09;75.62;98378.82;125879;1098;104503;-77
2020/12/10 05:40:15;;;;;;;34.90;16.13;;;;;;;-1.08;75.75;98381.36;126030;1098;104637;-77
2020/12/10 05:42:46;;;;;;;40.10;16.77;;;;;;;-1.02;76.03;98382.05;126353;1098;104438;-77
2020/12/10 05:45:18;;;;;;;39.57;17.93;;;;;;;-0.99;75.37;98374.94;125865;1098;104445;-77
2020/12/10 05:47:53;;;;;;;39.63;16.77;;;;;;;-0.98;75.60;98376.65;125993;1098;104549;-77
2020/12/10 05:50:25;;;;;;;38.13;16.60;;;;;;;-0.96;75.71;98382.67;126088;1098;104423;-74
2020/12/10 05:53:09;;;;;;;43.10;17.85;;;;;;;-0.94;75.25;98382.63;126207;1098;105028;-75
2020/12/10 05:55:48;;;;;;;37.20;16.73;;;;;;;-0.98;75.23;98381.87;125993;1098;104436;-79
2020/12/10 05:58:20;;;;;;;39.17;16.67;;;;;;;-1.00;75.41;98381.07;126561;1098;104535;-79
2020/12/10 06:00:49;;;;;;;35.87;14.83;;;;;;;-1.01;75.02;98381.98;126245;1098;104624;-80
2020/12/10 06:03:18;;;;;;;40.10;16.55;;;;;;;-1.00;75.85;98380.23;126023;1098;104423;-77
2020/12/10 06:05:48;;;;;;;41.30;17.17;;;;;;;-0.97;76.35;98380.13;125931;1098;104557;-77
2020/12/10 06:08:15;;;;;;;38.73;17.57;;;;;;;-0.94;76.07;98374.80;125823;1101;104423;-77
2020/12/10 06:10:43;;;;;;;39.40;17.42;;;;;;;-0.94;75.80;98359.12;126061;1098;104443;-78
2020/12/10 06:13:11;;;;;;;37.00;15.93;;;;;;;-0.93;75.37;98366.05;125971;1098;104436;-79
2020/12/10 06:15:38;;;;;;;35.67;15.00;;;;;;;-0.99;75.22;98366.27;125902;1100;104423;-79
2020/12/10 06:18:09;;;;;;;41.30;16.37;;;;;;;-1.02;75.23;98372.48;126110;1098;104641;-80
2020/12/10 06:20:45;;;;;;;37.10;17.37;;;;;;;-0.98;76.15;98374.03;126150;1099;104945;-79
2020/12/10 06:23:26;;;;;;;39.40;17.23;;;;;;;-0.91;75.76;98372.07;125882;1100;104477;-80
2020/12/10 06:25:57;;;;;;;36.30;17.00;;;;;;;-0.90;75.55;98377.22;125950;1100;104549;-83
2020/12/10 06:28:27;;;;;;;40.57;16.63;;;;;;;-0.91;76.06;98372.07;126105;1099;104545;-80
2020/12/10 06:31:09;;;;;;;41.07;17.27;;;;;;;-0.88;76.47;98366.73;126091;1098;104493;-80
2020/12/10 06:33:43;;;;;;;35.27;15.17;;;;;;;-0.87;75.64;98370.19;126037;1098;104420;-80
2020/12/10 06:36:23;;;;;;;38.47;16.87;;;;;;;-0.89;76.35;98367.64;125930;1098;104628;-78
2020/12/10 06:38:54;;;;;;;38.87;17.10;;;;;;;-0.91;75.89;98359.02;126008;1098;104859;-78
2020/12/10 06:41:23;;;;;;;38.13;17.17;;;;;;;-0.88;75.69;98361.52;126166;1098;104413;-81
2020/12/10 06:43:51;;;;;;;39.70;14.83;;;;;;;-0.90;75.39;98361.56;125954;1098;104535;-80
2020/12/10 06:46:19;;;;;;;38.00;15.87;;;;;;;-0.90;75.44;98361.56;125921;1100;104435;-81
2020/12/10 06:48:50;;;;;;;37.40;17.03;;;;;;;-0.87;75.64;98355.39;125937;1098;104414;-78
2020/12/10 06:51:20;;;;;;;39.60;16.50;;;;;;;-0.86;75.96;98354.48;125880;1100;104481;-79
2020/12/10 06:54:14;;;;;;;38.57;17.00;;;;;;;-0.83;76.20;98351.75;125919;1100;104586;-81
2020/12/10 06:57:03;;;;;;;41.07;16.87;;;;;;;-0.83;75.61;98349.14;125965;1099;104477;-80
2020/12/10 06:59:39;;;;;;;41.83;18.63;;;;;;;-0.77;76.27;98342.83;125974;1098;104526;-80
2020/12/10 07:02:21;;;;;;;39.47;16.43;;;;;;;-0.72;75.74;98340.02;126072;1098;104554;-80
2020/12/10 07:04:51;;;;;;;42.03;18.47;;;;;;;-0.72;76.16;98342.63;126098;1098;104416;-82
2020/12/10 07:07:25;;;;;;;37.90;15.23;;;;;;;-0.72;76.08;98338.28;126123;1098;105022;-81
2020/12/10 07:09:59;;;;;;;40.30;17.93;;;;;;;-0.72;75.51;98332.19;126243;1093;104419;-81
2020/12/10 07:12:40;;;;;;;37.90;16.87;;;;;;;-0.75;75.58;98335.78;125908;1100;104563;-80
2020/12/10 07:15:13;;;;;;;37.63;16.57;;;;;;;-0.79;76.25;98336.81;126131;1099;104519;-85
2020/12/10 07:17:47;;;;;;;40.45;16.55;;;;;;;-0.80;75.32;98341.16;125933;1093;104501;-77
2020/12/10 07:20:15;;;;;;;;;;;;;;;-0.79;76.11;98339.42;126057;1098;104519;-77
2020/12/10 07:22:43;;;;;;;42.37;17.67;;;;;;;-0.75;76.04;98338.39;126093;1100;104577;-80
2020/12/10 07:25:11;;;;;;;41.47;18.67;;;;;;;-0.71;75.42;98332.15;127911;1099;102897;-77
2020/12/10 07:27:44;;;;;;;40.90;17.90;;;;;;;-0.70;76.12;98327.76;127480;1100;104587;-78
2020/12/10 07:30:14;;;;;;;39.60;15.85;;;;;;;-0.70;75.65;98328.62;126255;1098;104484;-79
2020/12/10 07:32:43;;;;;;;40.77;17.20;;;;;;;-0.64;75.88;98328.39;126240;1099;104494;-81
2020/12/10 07:35:13;;;;;;;39.83;17.23;;;;;;;-0.55;75.76;98334.14;126055;1100;104568;-80
2020/12/10 07:37:42;;;;;;;42.57;18.13;;;;;;;-0.50;75.86;98322.63;125993;1100;104903;-79
2020/12/10 07:40:14;;;;;;;36.87;15.87;;;;;;;-0.49;75.59;98321.70;125925;1100;104421;-80
2020/12/10 07:42:42;;;;;;;33.90;15.05;;;;;;;-0.46;75.98;98310.27;126100;1098;104493;-79
2020/12/10 07:45:18;;;;;;;37.60;16.73;;;;;;;-0.45;75.28;98314.59;125975;1100;104506;-78
2020/12/10 07:47:57;;;;;;;37.73;16.37;;;;;;;-0.43;75.68;98307.54;126263;1093;104522;-80
2020/12/10 07:50:26;;;;;;;36.03;15.83;;;;;;;-0.37;75.64;98301.20;125964;1093;104500;-79
2020/12/10 07:52:55;;;;;;;38.53;16.73;;;;;;;-0.31;76.10;98304.44;126049;1098;104417;-79
2020/12/10 07:55:26;;;;;;;38.83;16.13;;;;;;;-0.26;75.76;98306.02;126352;1098;104541;-80
2020/12/10 07:58:11;;;;;;;41.00;17.67;;;;;;;-0.19;76.08;98286.53;125957;1101;104583;-83
2020/12/10 08:00:40;;;;;;;39.07;16.03;;;;;;;-0.19;75.90;98286.53;125856;1100;104618;-80
2020/12/10 08:03:19;;;;;;;36.07;16.63;;;;;;;-0.14;76.29;98284.58;126017;1100;104436;-82
2020/12/10 08:06:03;;;;;;;35.03;15.70;;;;;;;-0.17;76.06;98280.34;126045;1098;104500;-79
2020/12/10 08:08:42;;;;;;;33.60;13.67;;;;;;;-0.19;75.87;98276.94;126178;1099;104545;-79
2020/12/10 08:11:10;;;;;;;31.50;14.17;;;;;;;-0.16;75.62;98276.81;125925;1101;104531;-79
2020/12/10 08:14:02;;;;;;;32.33;14.67;;;;;;;-0.11;76.17;98270.55;125947;1100;104510;-80
2020/12/10 08:16:43;;;;;;;34.63;15.07;;;;;;;-0.10;76.05;98278.31;126099;1098;104442;-78
2020/12/10 08:19:22;;;;;;;36.03;15.40;;;;;;;-0.11;75.49;98266.16;126062;1098;104903;-80
2020/12/10 08:21:51;;;;;;;35.63;16.20;;;;;;;-0.16;75.84;98276.81;125891;1101;104506;-79
2020/12/10 08:24:41;;;;;;;37.43;15.43;;;;;;;-0.20;75.88;98277.85;125899;1093;104528;-80
2020/12/10 08:27:14;;;;;;;35.43;15.13;;;;;;;-0.13;76.20;98274.99;126102;1098;104440;-79
2020/12/10 08:30:00;;;;;;;31.37;14.80;;;;;;;-0.05;76.26;98271.13;125896;1101;105016;-78
2020/12/10 08:32:27;;;;;;;31.10;14.50;;;;;;;-0.03;76.07;98252.78;125870;1099;104500;-87
2020/12/10 08:35:06;;;;;;;37.78;15.43;;;;;;;-0.04;76.14;98258.92;126069;1100;104526;-78
2020/12/10 08:37:40;;;;;;;31.97;14.80;;;;;;;-0.05;75.85;98259.84;125881;1100;104510;-78
2020/12/10 08:40:11;;;;;;;33.60;14.93;;;;;;;-0.07;76.15;98259.88;126063;1098;104587;-81
2020/12/10 08:42:40;;;;;;;30.37;13.70;;;;;;;-0.06;76.08;98253.74;125897;1093;104524;-78
2020/12/10 08:45:07;;;;;;;30.20;13.20;;;;;;;-0.05;76.25;98246.77;125864;1100;104449;-78
2020/12/10 08:47:38;;;;;;;28.73;12.87;;;;;;;-0.06;76.14;98239.84;126037;1099;104541;-76
2020/12/10 08:50:25;;;;;;;62.43;33.30;;;;;;;-0.02;75.92;98244.02;126059;1098;104453;-77
2020/12/10 08:53:02;;;;;;;39.30;19.20;;;;;;;0.08;76.24;98234.84;125872;1100;104645;-77
2020/12/10 08:55:48;;;;;;;35.97;15.40;;;;;;;0.13;75.89;98226.81;126020;1098;106177;-79
2020/12/10 08:58:26;;;;;;;31.00;14.13;;;;;;;0.15;76.12;98227.59;126070;1099;104417;-78
2020/12/10 09:00:55;;;;;;;33.27;12.90;;;;;;;0.18;76.02;98244.91;125878;1100;104477;-76
2020/12/10 09:03:24;;;;;;;35.77;14.57;;;;;;;0.19;76.24;98228.30;125879;1098;104488;-79
2020/12/10 09:05:53;;;;;;;28.67;12.80;;;;;;;0.21;76.02;98224.69;125899;1099;104531;-78
2020/12/10 09:08:20;;;;;;;33.13;15.40;;;;;;;0.22;76.12;98209.86;125860;1100;104411;-79
2020/12/10 09:10:49;;;;;;;36.17;15.10;;;;;;;0.20;75.97;98217.79;126163;1093;104459;-77
2020/12/10 09:13:16;;;;;;;30.83;14.80;;;;;;;0.20;76.11;98225.64;126001;1093;104913;-78
2020/12/10 09:15:44;;;;;;;30.67;13.87;;;;;;;0.23;76.00;98208.95;125818;1093;104545;-78
2020/12/10 09:18:12;;;;;;;29.37;12.93;;;;;;;0.24;76.13;98197.56;125834;1093;104580;-79
2020/12/10 09:20:41;;;;;;;50.23;23.60;;;;;;;0.24;76.06;98194.95;125842;1093;104513;-77
2020/12/10 09:23:11;;;;;;;27.70;12.03;;;;;;;0.20;76.22;98198.62;125832;1093;104611;-78
2020/12/10 09:25:41;;;;;;;28.40;13.03;;;;;;;0.21;76.03;98201.15;125821;1093;104487;-77
2020/12/10 09:28:09;;;;;;;28.60;11.50;;;;;;;0.26;76.07;98198.34;126025;1093;104509;-77
2020/12/10 09:30:40;;;;;;;29.30;12.77;;;;;;;0.26;76.01;98195.73;125842;1093;104516;-78
2020/12/10 09:33:08;;;;;;;30.03;12.80;;;;;;;0.27;76.13;98192.20;125965;1093;104425;-77
2020/12/10 09:35:37;;;;;;;28.73;13.53;;;;;;;0.34;76.25;98195.37;125984;1093;104871;-77
2020/12/10 09:38:05;;;;;;;30.03;12.40;;;;;;;0.33;76.12;98194.55;126057;1093;104485;-78
2020/12/10 09:40:35;;;;;;;29.77;13.13;;;;;;;0.37;76.35;98201.34;125878;1100;104538;-78
2020/12/10 09:43:04;;;;;;;30.00;11.90;;;;;;;0.40;76.16;98192.48;126191;1098;104426;-81
2020/12/10 09:45:31;;;;;;;28.30;12.93;;;;;;;0.40;75.98;98195.11;125872;1100;104483;-78
2020/12/10 09:48:00;;;;;;;26.80;11.80;;;;;;;0.46;76.02;98180.89;125965;1100;104523;-79
2020/12/10 09:50:31;;;;;;;26.60;11.20;;;;;;;0.49;76.08;98178.13;126157;1093;104468;-78
2020/12/10 09:53:12;;;;;;;25.00;11.40;;;;;;;0.49;75.92;98176.38;125939;1098;104525;-80
2020/12/10 09:58:12;;;;;;;26.17;12.43;;;;;;;0.52;76.26;98157.06;125862;1094;104426;-79
2020/12/10 10:00:39;;;;;;;27.52;12.80;;;;;;;0.54;76.19;98163.94;126122;1098;104424;-78
2020/12/10 10:03:07;;;;;;;28.93;13.03;;;;;;;0.57;76.17;98168.16;126103;1098;104503;-78
2020/12/10 10:05:57;;;;;;;26.80;12.00;;;;;;;0.63;76.03;98173.12;126160;1098;104420;-78
2020/12/10 10:08:27;;;;;;;26.17;12.37;;;;;;;0.68;76.55;98173.76;126058;1098;104545;-79
2020/12/10 10:10:55;;;;;;;29.80;13.00;;;;;;;0.72;75.95;98172.70;125889;1101;104414;-76
2020/12/10 10:13:24;;;;;;;27.23;12.07;;;;;;;0.74;75.97;98172.61;126089;1098;104545;-78
2020/12/10 10:15:52;;;;;;;27.03;10.73;;;;;;;0.77;76.31;98177.70;125825;1099;105002;-76
2020/12/10 10:18:19;;;;;;;25.07;11.40;;;;;;;0.84;76.41;98167.78;126006;1100;104423;-76
2020/12/10 10:20:46;;;;;;;25.68;11.48;;;;;;;0.92;76.20;98162.20;125902;1101;104608;-77
2020/12/10 10:23:19;;;;;;;27.80;11.53;;;;;;;0.98;76.54;98161.91;125996;1098;104538;-77
2020/12/10 10:25:47;;;;;;;28.50;11.30;;;;;;;1.04;76.07;98157.21;126068;1098;104429;-78
2020/12/10 10:28:16;;;;;;;24.87;10.47;;;;;;;1.06;76.18;98146.65;126007;1093;104425;-84
2020/12/10 10:30:45;;;;;;;23.43;10.40;;;;;;;1.10;76.49;98140.34;126325;1093;104545;-80
2020/12/10 10:33:12;;;;;;;25.23;10.67;;;;;;;1.14;75.96;98143.67;125889;1093;104632;-83
2020/12/10 10:35:39;;;;;;;28.70;11.47;;;;;;;1.15;75.94;98137.52;126309;1093;104474;-75
2020/12/10 10:38:06;;;;;;;26.13;11.67;;;;;;;1.19;76.33;98142.52;126101;1093;104545;-79
2020/12/10 10:40:37;;;;;;;27.58;11.43;;;;;;;1.22;76.12;98132.81;125751;1093;104500;-78
2020/12/10 10:43:04;;;;;;;29.83;12.47;;;;;;;1.18;76.07;98132.13;126018;1093;104411;-78
2020/12/10 10:45:36;;;;;;;29.30;12.70;;;;;;;1.23;76.11;98135.34;126077;1093;104532;-78
2020/12/10 10:48:03;;;;;;;27.43;12.07;;;;;;;1.28;76.02;98132.51;125975;1093;104983;-77
2020/12/10 10:50:30;;;;;;;27.75;12.00;;;;;;;1.30;76.30;98128.88;125862;1093;104419;-77
2020/12/10 10:52:57;;;;;;;31.63;14.03;;;;;;;1.31;76.32;98129.73;125915;1093;104413;-82
2020/12/10 10:55:26;;;;;;;26.20;11.73;;;;;;;1.33;76.27;98130.52;126027;1098;104500;-78
2020/12/10 10:57:55;;;;;;;29.97;14.63;;;;;;;1.28;75.98;98117.63;125926;1098;104512;-77
2020/12/10 11:00:22;;;;;;;29.70;14.50;;;;;;;1.28;75.85;98127.27;125874;1102;104484;-77
2020/12/10 11:02:49;;;;;;;27.85;12.75;;;;;;;1.32;76.33;98113.92;125885;1100;104517;-80
2020/12/10 11:05:19;;;;;;;25.87;12.23;;;;;;;1.40;76.01;98113.56;126075;1098;104522;-79
2020/12/10 11:07:46;;;;;;;30.40;12.47;;;;;;;1.45;76.11;98108.08;125988;1098;104519;-76
2020/12/10 11:10:21;;;;;;;28.83;12.07;;;;;;;1.49;75.77;98106.99;126054;1093;104716;-78
2020/12/10 11:12:52;;;;;;;28.90;13.57;;;;;;;1.52;76.38;98106.84;126012;1093;104547;-79
2020/12/10 11:15:20;;;;;;;28.70;13.27;;;;;;;1.51;75.63;98110.39;125913;1098;104628;-75
2020/12/10 11:17:47;;;;;;;28.73;13.33;;;;;;;1.47;75.97;98108.84;125918;1100;104544;-77
2020/12/10 11:20:16;;;;;;;27.37;12.60;;;;;;;1.47;75.78;98107.05;126131;1093;104581;-77